sensor_id;sensor_type;location;lat;lon;timestamp;pressure;altitude;pressure_sealevel;temperature;humidity
35291;BME280;21411;50.024;19.220;2022-12-18T00:00:47;100452.45;;;-4.86;100.00
35291;BME280;21411;50.024;19.220;2022-12-18T00:03:33;100460.95;;;-4.86;100.00
35291;BME280;21411;50.024;19.220;2022-12-18T00:05:59;100461.81;;;-4.85;100.00
35291;BME280;21411;50.024;19.220;2022-12-18T00:08:25;100465.14;;;-4.84;100.00
35291;BME280;21411;50.024;19.220;2022-12-18T00:10:51;100467.20;;;-4.85;100.00
35291;BME280;21411;50.024;19.220;2022-12-18T00:13:17;100463.91;;;-4.85;100.00
35291;BME280;21411;50.024;19.220;2022-12-18T00:15:43;100462.16;;;-4.85;100.00
35291;BME280;21411;50.024;19.220;2022-12-18T00:18:09;100468.40;;;-4.85;100.00
35291;BME280;21411;50.024;19.220;2022-12-18T00:20:36;100468.96;;;-4.83;100.00
35291;BME280;21411;50.024;19.220;2022-12-18T00:23:04;100472.96;;;-4.82;100.00
35291;BME280;21411;50.024;19.220;2022-12-18T00:25:33;100477.67;;;-4.81;100.00
35291;BME280;21411;50.024;19.220;2022-12-18T00:28:00;100482.52;;;-4.81;100.00
35291;BME280;21411;50.024;19.220;2022-12-18T00:30:27;100489.94;;;-4.83;100.00
35291;BME280;21411;50.024;19.220;2022-12-18T00:32:53;100489.25;;;-4.82;100.00
35291;BME280;21411;50.024;19.220;2022-12-18T00:35:20;100487.86;;;-4.82;100.00
35291;BME280;21411;50.024;19.220;2022-12-18T00:37:46;100490.84;;;-4.81;100.00
35291;BME280;21411;50.024;19.220;2022-12-18T00:40:13;100493.31;;;-4.79;100.00
35291;BME280;21411;50.024;19.220;2022-12-18T00:42:40;100496.11;;;-4.78;100.00
35291;BME280;21411;50.024;19.220;2022-12-18T00:45:35;100496.91;;;-4.81;100.00
35291;BME280;21411;50.024;19.220;2022-12-18T00:48:01;100499.67;;;-4.82;100.00
35291;BME280;21411;50.024;19.220;2022-12-18T00:50:27;100508.38;;;-4.80;100.00
35291;BME280;21411;50.024;19.220;2022-12-18T00:52:53;100516.20;;;-4.79;100.00
35291;BME280;21411;50.024;19.220;2022-12-18T00:55:19;100522.27;;;-4.79;100.00
35291;BME280;21411;50.024;19.220;2022-12-18T00:57:46;100523.11;;;-4.79;100.00
35291;BME280;21411;50.024;19.220;2022-12-18T01:00:14;100521.40;;;-4.79;100.00
35291;BME280;21411;50.024;19.220;2022-12-18T01:02:42;100517.08;;;-4.78;100.00
35291;BME280;21411;50.024;19.220;2022-12-18T01:05:11;100522.98;;;-4.77;100.00
35291;BME280;21411;50.024;19.220;2022-12-18T01:07:37;100530.61;;;-4.78;100.00
35291;BME280;21411;50.024;19.220;2022-12-18T01:10:04;100531.98;;;-4.78;100.00
35291;BME280;21411;50.024;19.220;2022-12-18T01:12:31;100534.41;;;-4.79;100.00
35291;BME280;21411;50.024;19.220;2022-12-18T01:14:57;100537.38;;;-4.77;100.00
35291;BME280;21411;50.024;19.220;2022-12-18T01:17:24;100539.67;;;-4.76;100.00
35291;BME280;21411;50.024;19.220;2022-12-18T01:19:50;100540.56;;;-4.74;100.00
35291;BME280;21411;50.024;19.220;2022-12-18T01:22:15;100544.06;;;-4.73;100.00
35291;BME280;21411;50.024;19.220;2022-12-18T01:24:41;100545.41;;;-4.74;100.00
35291;BME280;21411;50.024;19.220;2022-12-18T01:27:09;100546.42;;;-4.76;100.00
35291;BME280;21411;50.024;19.220;2022-12-18T01:29:35;100544.67;;;-4.77;100.00
35291;BME280;21411;50.024;19.220;2022-12-18T01:32:00;100547.61;;;-4.78;100.00
35291;BME280;21411;50.024;19.220;2022-12-18T01:34:26;100544.48;;;-4.78;100.00
35291;BME280;21411;50.024;19.220;2022-12-18T01:36:52;100545.02;;;-4.77;100.00
35291;BME280;21411;50.024;19.220;2022-12-18T01:39:19;100544.32;;;-4.77;100.00
35291;BME280;21411;50.024;19.220;2022-12-18T01:41:45;100543.31;;;-4.76;100.00
35291;BME280;21411;50.024;19.220;2022-12-18T01:47:39;100547.91;;;-4.80;100.00
35291;BME280;21411;50.024;19.220;2022-12-18T01:50:16;100551.54;;;-4.80;100.00
35291;BME280;21411;50.024;19.220;2022-12-18T01:52:54;100553.80;;;-4.79;100.00
35291;BME280;21411;50.024;19.220;2022-12-18T01:55:23;100560.07;;;-4.78;100.00
35291;BME280;21411;50.024;19.220;2022-12-18T01:57:55;100564.42;;;-4.77;100.00
35291;BME280;21411;50.024;19.220;2022-12-18T02:00:23;100568.59;;;-4.77;100.00
35291;BME280;21411;50.024;19.220;2022-12-18T02:02:50;100566.17;;;-4.77;100.00
35291;BME280;21411;50.024;19.220;2022-12-18T02:05:44;100566.36;;;-4.76;100.00
35291;BME280;21411;50.024;19.220;2022-12-18T02:08:20;100569.97;;;-4.77;100.00
35291;BME280;21411;50.024;19.220;2022-12-18T02:11:10;100574.83;;;-4.77;100.00
35291;BME280;21411;50.024;19.220;2022-12-18T02:13:46;100585.73;;;-4.77;100.00
35291;BME280;21411;50.024;19.220;2022-12-18T02:16:39;100594.23;;;-4.79;100.00
35291;BME280;21411;50.024;19.220;2022-12-18T02:19:55;100602.34;;;-4.80;100.00
35291;BME280;21411;50.024;19.220;2022-12-18T02:22:29;100601.80;;;-4.81;100.00
35291;BME280;21411;50.024;19.220;2022-12-18T02:28:04;100611.70;;;-4.80;100.00
35291;BME280;21411;50.024;19.220;2022-12-18T02:30:34;100613.05;;;-4.82;100.00
35291;BME280;21411;50.024;19.220;2022-12-18T02:33:04;100611.61;;;-4.84;100.00
35291;BME280;21411;50.024;19.220;2022-12-18T02:35:31;100615.23;;;-4.85;100.00
35291;BME280;21411;50.024;19.220;2022-12-18T02:37:58;100617.67;;;-4.85;100.00
35291;BME280;21411;50.024;19.220;2022-12-18T02:40:27;100613.16;;;-4.84;100.00
35291;BME280;21411;50.024;19.220;2022-12-18T02:42:54;100609.90;;;-4.84;100.00
35291;BME280;21411;50.024;19.220;2022-12-18T02:45:20;100611.10;;;-4.84;100.00
35291;BME280;21411;50.024;19.220;2022-12-18T02:47:48;100615.42;;;-4.85;100.00
35291;BME280;21411;50.024;19.220;2022-12-18T02:53:53;100631.91;;;-4.84;100.00
35291;BME280;21411;50.024;19.220;2022-12-18T02:56:30;100635.05;;;-4.83;100.00
35291;BME280;21411;50.024;19.220;2022-12-18T02:59:11;100639.17;;;-4.84;100.00
35291;BME280;21411;50.024;19.220;2022-12-18T03:02:02;100641.05;;;-4.86;100.00
35291;BME280;21411;50.024;19.220;2022-12-18T03:04:43;100641.36;;;-4.87;100.00
35291;BME280;21411;50.024;19.220;2022-12-18T03:07:21;100643.94;;;-4.88;100.00
35291;BME280;21411;50.024;19.220;2022-12-18T03:09:51;100650.98;;;-4.91;100.00
35291;BME280;21411;50.024;19.220;2022-12-18T03:12:23;100652.88;;;-4.92;100.00
35291;BME280;21411;50.024;19.220;2022-12-18T03:15:24;100649.55;;;-4.93;100.00
35291;BME280;21411;50.024;19.220;2022-12-18T03:17:56;100650.05;;;-4.94;100.00
35291;BME280;21411;50.024;19.220;2022-12-18T03:20:25;100650.39;;;-4.95;100.00
35291;BME280;21411;50.024;19.220;2022-12-18T03:22:57;100650.40;;;-4.94;100.00
35291;BME280;21411;50.024;19.220;2022-12-18T03:25:26;100652.27;;;-4.95;100.00
35291;BME280;21411;50.024;19.220;2022-12-18T03:27:56;100651.23;;;-4.96;100.00
35291;BME280;21411;50.024;19.220;2022-12-18T03:30:24;100647.91;;;-4.97;100.00
35291;BME280;21411;50.024;19.220;2022-12-18T03:35:24;100653.79;;;-4.98;100.00
35291;BME280;21411;50.024;19.220;2022-12-18T03:37:52;100654.46;;;-4.98;100.00
35291;BME280;21411;50.024;19.220;2022-12-18T03:40:22;100656.37;;;-4.98;100.00
35291;BME280;21411;50.024;19.220;2022-12-18T03:43:01;100656.71;;;-4.99;100.00
35291;BME280;21411;50.024;19.220;2022-12-18T03:45:33;100660.00;;;-4.99;100.00
35291;BME280;21411;50.024;19.220;2022-12-18T03:48:04;100666.39;;;-5.00;100.00
35291;BME280;21411;50.024;19.220;2022-12-18T03:50:49;100671.38;;;-5.01;100.00
35291;BME280;21411;50.024;19.220;2022-12-18T03:53:25;100669.48;;;-5.01;100.00
35291;BME280;21411;50.024;19.220;2022-12-18T03:55:55;100674.19;;;-5.00;100.00
35291;BME280;21411;50.024;19.220;2022-12-18T03:58:24;100675.55;;;-5.01;100.00
35291;BME280;21411;50.024;19.220;2022-12-18T04:00:52;100677.11;;;-5.00;100.00
35291;BME280;21411;50.024;19.220;2022-12-18T04:03:21;100677.29;;;-5.00;100.00
35291;BME280;21411;50.024;19.220;2022-12-18T04:05:50;100683.05;;;-4.99;100.00
35291;BME280;21411;50.024;19.220;2022-12-18T04:08:17;100687.73;;;-4.98;100.00
35291;BME280;21411;50.024;19.220;2022-12-18T04:10:43;100692.24;;;-4.98;100.00
35291;BME280;21411;50.024;19.220;2022-12-18T04:13:09;100692.77;;;-4.98;100.00
35291;BME280;21411;50.024;19.220;2022-12-18T04:15:36;100693.66;;;-4.97;100.00
35291;BME280;21411;50.024;19.220;2022-12-18T04:18:03;100697.10;;;-4.98;100.00
35291;BME280;21411;50.024;19.220;2022-12-18T04:20:29;100705.10;;;-4.97;100.00
35291;BME280;21411;50.024;19.220;2022-12-18T04:22:55;100712.06;;;-4.96;100.00
35291;BME280;21411;50.024;19.220;2022-12-18T04:25:21;100716.04;;;-4.97;100.00
35291;BME280;21411;50.024;19.220;2022-12-18T04:27:47;100718.11;;;-4.97;100.00
35291;BME280;21411;50.024;19.220;2022-12-18T04:30:13;100715.17;;;-4.96;100.00
35291;BME280;21411;50.024;19.220;2022-12-18T04:32:39;100721.08;;;-4.96;100.00
35291;BME280;21411;50.024;19.220;2022-12-18T04:35:05;100720.70;;;-4.97;100.00
35291;BME280;21411;50.024;19.220;2022-12-18T04:37:36;100721.55;;;-4.98;100.00
35291;BME280;21411;50.024;19.220;2022-12-18T04:40:05;100724.52;;;-4.97;100.00
35291;BME280;21411;50.024;19.220;2022-12-18T04:42:31;100728.34;;;-4.96;100.00
35291;BME280;21411;50.024;19.220;2022-12-18T04:44:57;100732.52;;;-4.96;100.00
35291;BME280;21411;50.024;19.220;2022-12-18T04:47:23;100738.81;;;-4.94;100.00
35291;BME280;21411;50.024;19.220;2022-12-18T04:49:48;100738.00;;;-4.92;100.00
35291;BME280;21411;50.024;19.220;2022-12-18T04:52:14;100736.79;;;-4.92;100.00
35291;BME280;21411;50.024;19.220;2022-12-18T04:54:41;100736.48;;;-4.90;100.00
35291;BME280;21411;50.024;19.220;2022-12-18T04:57:06;100739.33;;;-4.86;100.00
35291;BME280;21411;50.024;19.220;2022-12-18T04:59:32;100740.44;;;-4.84;100.00
35291;BME280;21411;50.024;19.220;2022-12-18T05:01:58;100744.42;;;-4.84;100.00
35291;BME280;21411;50.024;19.220;2022-12-18T05:04:24;100752.05;;;-4.84;100.00
35291;BME280;21411;50.024;19.220;2022-12-18T05:06:50;100756.36;;;-4.84;100.00
35291;BME280;21411;50.024;19.220;2022-12-18T05:09:17;100759.77;;;-4.87;100.00
35291;BME280;21411;50.024;19.220;2022-12-18T05:11:42;100760.73;;;-4.90;100.00
35291;BME280;21411;50.024;19.220;2022-12-18T05:14:08;100769.17;;;-4.93;100.00
35291;BME280;21411;50.024;19.220;2022-12-18T05:16:35;100768.05;;;-4.96;100.00
35291;BME280;21411;50.024;19.220;2022-12-18T05:19:01;100767.52;;;-4.97;100.00
35291;BME280;21411;50.024;19.220;2022-12-18T05:21:26;100771.79;;;-4.99;100.00
35291;BME280;21411;50.024;19.220;2022-12-18T05:23:53;100769.16;;;-5.00;100.00
35291;BME280;21411;50.024;19.220;2022-12-18T05:26:19;100771.58;;;-5.00;100.00
35291;BME280;21411;50.024;19.220;2022-12-18T05:28:45;100775.24;;;-4.99;100.00
35291;BME280;21411;50.024;19.220;2022-12-18T05:31:12;100774.21;;;-4.99;100.00
35291;BME280;21411;50.024;19.220;2022-12-18T05:33:38;100769.87;;;-4.99;100.00
35291;BME280;21411;50.024;19.220;2022-12-18T05:36:06;100772.11;;;-4.99;100.00
35291;BME280;21411;50.024;19.220;2022-12-18T05:38:35;100774.70;;;-5.00;100.00
35291;BME280;21411;50.024;19.220;2022-12-18T05:41:03;100773.98;;;-5.00;100.00
35291;BME280;21411;50.024;19.220;2022-12-18T05:43:29;100777.10;;;-5.01;100.00
35291;BME280;21411;50.024;19.220;2022-12-18T05:45:55;100776.75;;;-5.02;100.00
35291;BME280;21411;50.024;19.220;2022-12-18T05:48:22;100779.16;;;-5.02;100.00
35291;BME280;21411;50.024;19.220;2022-12-18T05:50:50;100781.93;;;-5.02;100.00
35291;BME280;21411;50.024;19.220;2022-12-18T05:53:18;100788.52;;;-5.02;100.00
35291;BME280;21411;50.024;19.220;2022-12-18T05:55:45;100785.55;;;-5.03;100.00
35291;BME280;21411;50.024;19.220;2022-12-18T05:58:12;100785.88;;;-5.04;100.00
35291;BME280;21411;50.024;19.220;2022-12-18T06:00:41;100788.27;;;-5.05;100.00
35291;BME280;21411;50.024;19.220;2022-12-18T06:03:09;100796.04;;;-5.06;100.00
35291;BME280;21411;50.024;19.220;2022-12-18T06:05:41;100794.70;;;-5.04;100.00
35291;BME280;21411;50.024;19.220;2022-12-18T06:08:07;100799.95;;;-5.02;100.00
35291;BME280;21411;50.024;19.220;2022-12-18T06:10:33;100800.67;;;-5.01;100.00
35291;BME280;21411;50.024;19.220;2022-12-18T06:12:59;100806.80;;;-4.99;100.00
35291;BME280;21411;50.024;19.220;2022-12-18T06:15:25;100811.15;;;-4.98;100.00
35291;BME280;21411;50.024;19.220;2022-12-18T06:17:51;100808.06;;;-4.97;100.00
35291;BME280;21411;50.024;19.220;2022-12-18T06:20:18;100808.82;;;-4.94;100.00
35291;BME280;21411;50.024;19.220;2022-12-18T06:22:44;100809.26;;;-4.90;100.00
35291;BME280;21411;50.024;19.220;2022-12-18T06:25:10;100809.56;;;-4.85;100.00
35291;BME280;21411;50.024;19.220;2022-12-18T06:27:56;100816.42;;;-4.81;100.00
35291;BME280;21411;50.024;19.220;2022-12-18T06:30:23;100818.36;;;-4.80;100.00
35291;BME280;21411;50.024;19.220;2022-12-18T06:32:49;100823.45;;;-4.78;100.00
35291;BME280;21411;50.024;19.220;2022-12-18T06:35:17;100826.79;;;-4.76;100.00
35291;BME280;21411;50.024;19.220;2022-12-18T06:37:44;100825.71;;;-4.77;100.00
35291;BME280;21411;50.024;19.220;2022-12-18T06:40:10;100831.56;;;-4.79;100.00
35291;BME280;21411;50.024;19.220;2022-12-18T06:42:36;100828.95;;;-4.79;100.00
35291;BME280;21411;50.024;19.220;2022-12-18T06:45:04;100833.30;;;-4.79;100.00
35291;BME280;21411;50.024;19.220;2022-12-18T06:47:30;100833.14;;;-4.78;100.00
35291;BME280;21411;50.024;19.220;2022-12-18T06:49:56;100838.39;;;-4.76;100.00
35291;BME280;21411;50.024;19.220;2022-12-18T06:52:22;100840.64;;;-4.76;100.00
35291;BME280;21411;50.024;19.220;2022-12-18T06:54:47;100846.16;;;-4.78;100.00
35291;BME280;21411;50.024;19.220;2022-12-18T06:57:13;100847.17;;;-4.79;100.00
35291;BME280;21411;50.024;19.220;2022-12-18T06:59:39;100850.60;;;-4.80;100.00
35291;BME280;21411;50.024;19.220;2022-12-18T07:02:05;100858.92;;;-4.79;100.00
35291;BME280;21411;50.024;19.220;2022-12-18T07:04:32;100866.27;;;-4.77;100.00
35291;BME280;21411;50.024;19.220;2022-12-18T07:06:58;100869.63;;;-4.75;100.00
35291;BME280;21411;50.024;19.220;2022-12-18T07:09:24;100874.95;;;-4.71;100.00
35291;BME280;21411;50.024;19.220;2022-12-18T07:11:50;100874.00;;;-4.67;100.00
35291;BME280;21411;50.024;19.220;2022-12-18T07:14:16;100878.30;;;-4.61;100.00
35291;BME280;21411;50.024;19.220;2022-12-18T07:16:42;100877.33;;;-4.59;100.00
35291;BME280;21411;50.024;19.220;2022-12-18T07:19:10;100883.44;;;-4.57;100.00
35291;BME280;21411;50.024;19.220;2022-12-18T07:21:36;100884.27;;;-4.52;100.00
35291;BME280;21411;50.024;19.220;2022-12-18T07:24:02;100887.32;;;-4.47;100.00
35291;BME280;21411;50.024;19.220;2022-12-18T07:26:28;100890.17;;;-4.44;100.00
35291;BME280;21411;50.024;19.220;2022-12-18T07:28:55;100895.34;;;-4.38;100.00
35291;BME280;21411;50.024;19.220;2022-12-18T07:31:23;100901.70;;;-4.34;100.00
35291;BME280;21411;50.024;19.220;2022-12-18T07:33:51;100907.86;;;-4.30;100.00
35291;BME280;21411;50.024;19.220;2022-12-18T07:36:17;100913.18;;;-4.25;100.00
35291;BME280;21411;50.024;19.220;2022-12-18T07:38:46;100915.95;;;-4.18;100.00
35291;BME280;21411;50.024;19.220;2022-12-18T07:41:13;100915.02;;;-4.13;100.00
35291;BME280;21411;50.024;19.220;2022-12-18T07:43:40;100912.84;;;-4.09;100.00
35291;BME280;21411;50.024;19.220;2022-12-18T07:46:08;100911.94;;;-4.04;100.00
35291;BME280;21411;50.024;19.220;2022-12-18T07:48:36;100908.61;;;-3.98;100.00
35291;BME280;21411;50.024;19.220;2022-12-18T07:51:04;100911.39;;;-3.90;100.00
35291;BME280;21411;50.024;19.220;2022-12-18T07:53:31;100912.56;;;-3.84;100.00
35291;BME280;21411;50.024;19.220;2022-12-18T07:56:02;100911.45;;;-3.80;100.00
35291;BME280;21411;50.024;19.220;2022-12-18T07:58:29;100910.81;;;-3.77;100.00
35291;BME280;21411;50.024;19.220;2022-12-18T08:01:03;100911.40;;;-3.74;100.00
35291;BME280;21411;50.024;19.220;2022-12-18T08:03:29;100914.85;;;-3.67;100.00
35291;BME280;21411;50.024;19.220;2022-12-18T08:06:00;100918.54;;;-3.57;100.00
35291;BME280;21411;50.024;19.220;2022-12-18T08:08:27;100917.61;;;-3.51;100.00
35291;BME280;21411;50.024;19.220;2022-12-18T08:10:56;100914.17;;;-3.49;100.00
35291;BME280;21411;50.024;19.220;2022-12-18T08:13:22;100909.63;;;-3.51;100.00
35291;BME280;21411;50.024;19.220;2022-12-18T08:15:59;100909.76;;;-3.53;100.00
35291;BME280;21411;50.024;19.220;2022-12-18T08:18:26;100913.77;;;-3.52;100.00
35291;BME280;21411;50.024;19.220;2022-12-18T08:20:52;100914.52;;;-3.49;100.00
35291;BME280;21411;50.024;19.220;2022-12-18T08:23:18;100919.27;;;-3.47;100.00
35291;BME280;21411;50.024;19.220;2022-12-18T08:25:44;100923.60;;;-3.47;100.00
35291;BME280;21411;50.024;19.220;2022-12-18T08:28:10;100927.57;;;-3.49;100.00
35291;BME280;21411;50.024;19.220;2022-12-18T08:30:36;100931.94;;;-3.47;100.00
35291;BME280;21411;50.024;19.220;2022-12-18T08:33:03;100931.67;;;-3.44;100.00
35291;BME280;21411;50.024;19.220;2022-12-18T08:35:29;100926.77;;;-3.28;100.00
35291;BME280;21411;50.024;19.220;2022-12-18T08:37:55;100932.20;;;-3.18;100.00
35291;BME280;21411;50.024;19.220;2022-12-18T08:40:21;100929.41;;;-3.18;100.00
35291;BME280;21411;50.024;19.220;2022-12-18T08:42:47;100935.79;;;-3.21;100.00
35291;BME280;21411;50.024;19.220;2022-12-18T08:45:31;100940.72;;;-3.27;100.00
35291;BME280;21411;50.024;19.220;2022-12-18T08:47:59;100945.83;;;-3.31;100.00
35291;BME280;21411;50.024;19.220;2022-12-18T08:50:25;100950.61;;;-3.36;100.00
35291;BME280;21411;50.024;19.220;2022-12-18T08:52:51;100950.94;;;-3.37;100.00
35291;BME280;21411;50.024;19.220;2022-12-18T08:55:17;100953.74;;;-3.35;100.00
35291;BME280;21411;50.024;19.220;2022-12-18T08:57:48;100955.60;;;-3.30;100.00
35291;BME280;21411;50.024;19.220;2022-12-18T09:00:14;100959.88;;;-3.24;100.00
35291;BME280;21411;50.024;19.220;2022-12-18T09:02:40;100962.36;;;-3.22;100.00
35291;BME280;21411;50.024;19.220;2022-12-18T09:05:06;100963.73;;;-3.22;100.00
35291;BME280;21411;50.024;19.220;2022-12-18T09:07:32;100960.00;;;-3.18;100.00
35291;BME280;21411;50.024;19.220;2022-12-18T09:09:58;100963.42;;;-3.13;100.00
35291;BME280;21411;50.024;19.220;2022-12-18T09:12:24;100967.48;;;-3.10;100.00
35291;BME280;21411;50.024;19.220;2022-12-18T09:14:51;100967.54;;;-3.06;100.00
35291;BME280;21411;50.024;19.220;2022-12-18T09:17:16;100971.95;;;-3.03;100.00
35291;BME280;21411;50.024;19.220;2022-12-18T09:19:43;100976.85;;;-3.01;100.00
35291;BME280;21411;50.024;19.220;2022-12-18T09:22:09;100981.85;;;-3.04;100.00
35291;BME280;21411;50.024;19.220;2022-12-18T09:24:35;100987.30;;;-3.10;100.00
35291;BME280;21411;50.024;19.220;2022-12-18T09:27:01;100992.08;;;-3.14;100.00
35291;BME280;21411;50.024;19.220;2022-12-18T09:29:27;100987.16;;;-3.16;100.00
35291;BME280;21411;50.024;19.220;2022-12-18T09:31:54;100985.81;;;-3.14;100.00
35291;BME280;21411;50.024;19.220;2022-12-18T09:34:20;100985.95;;;-3.07;100.00
35291;BME280;21411;50.024;19.220;2022-12-18T09:36:50;100982.82;;;-2.99;100.00
35291;BME280;21411;50.024;19.220;2022-12-18T09:39:16;100977.05;;;-2.92;100.00
35291;BME280;21411;50.024;19.220;2022-12-18T09:41:54;100979.42;;;-2.86;100.00
35291;BME280;21411;50.024;19.220;2022-12-18T09:44:30;100979.60;;;-2.77;100.00
35291;BME280;21411;50.024;19.220;2022-12-18T09:47:04;100982.12;;;-2.72;100.00
35291;BME280;21411;50.024;19.220;2022-12-18T09:49:35;100990.38;;;-2.68;100.00
35291;BME280;21411;50.024;19.220;2022-12-18T09:52:14;100994.52;;;-2.61;100.00
35291;BME280;21411;50.024;19.220;2022-12-18T09:54:42;100994.61;;;-2.56;100.00
35291;BME280;21411;50.024;19.220;2022-12-18T09:57:18;100993.65;;;-2.51;100.00
35291;BME280;21411;50.024;19.220;2022-12-18T10:00:03;100992.28;;;-2.50;100.00
35291;BME280;21411;50.024;19.220;2022-12-18T10:02:32;100988.29;;;-2.49;100.00
35291;BME280;21411;50.024;19.220;2022-12-18T10:05:04;100985.94;;;-2.44;100.00
35291;BME280;21411;50.024;19.220;2022-12-18T10:07:53;100986.77;;;-2.37;100.00
35291;BME280;21411;50.024;19.220;2022-12-18T10:10:41;100990.29;;;-2.25;100.00
35291;BME280;21411;50.024;19.220;2022-12-18T10:13:17;100981.96;;;-2.13;100.00
35291;BME280;21411;50.024;19.220;2022-12-18T10:24:30;100966.27;;;-1.80;100.00
35291;BME280;21411;50.024;19.220;2022-12-18T10:27:12;100968.13;;;-1.73;100.00
35291;BME280;21411;50.024;19.220;2022-12-18T10:29:44;100971.02;;;-1.65;100.00
35291;BME280;21411;50.024;19.220;2022-12-18T10:32:17;100975.15;;;-1.57;100.00
35291;BME280;21411;50.024;19.220;2022-12-18T10:34:47;100977.15;;;-1.51;100.00
35291;BME280;21411;50.024;19.220;2022-12-18T10:37:18;100969.30;;;-1.51;100.00
35291;BME280;21411;50.024;19.220;2022-12-18T10:39:46;100961.88;;;-1.46;100.00
35291;BME280;21411;50.024;19.220;2022-12-18T10:42:18;100957.14;;;-1.36;100.00
35291;BME280;21411;50.024;19.220;2022-12-18T10:44:45;100951.80;;;-1.29;100.00
35291;BME280;21411;50.024;19.220;2022-12-18T10:47:17;100953.46;;;-1.23;100.00
35291;BME280;21411;50.024;19.220;2022-12-18T10:49:52;100944.04;;;-1.22;100.00
35291;BME280;21411;50.024;19.220;2022-12-18T10:52:22;100943.00;;;-1.22;100.00
35291;BME280;21411;50.024;19.220;2022-12-18T10:54:55;100947.93;;;-1.19;100.00
35291;BME280;21411;50.024;19.220;2022-12-18T11:02:45;100929.96;;;-1.20;100.00
35291;BME280;21411;50.024;19.220;2022-12-18T11:07:54;100936.27;;;-1.18;100.00
35291;BME280;21411;50.024;19.220;2022-12-18T11:10:23;100934.65;;;-1.21;100.00
35291;BME280;21411;50.024;19.220;2022-12-18T11:12:51;100929.27;;;-1.21;100.00
35291;BME280;21411;50.024;19.220;2022-12-18T11:15:36;100928.92;;;-1.19;100.00
35291;BME280;21411;50.024;19.220;2022-12-18T11:18:02;100926.15;;;-1.18;100.00
35291;BME280;21411;50.024;19.220;2022-12-18T11:20:36;100921.95;;;-1.19;100.00
35291;BME280;21411;50.024;19.220;2022-12-18T11:23:05;100917.87;;;-1.25;100.00
35291;BME280;21411;50.024;19.220;2022-12-18T11:25:36;100916.79;;;-1.27;100.00
35291;BME280;21411;50.024;19.220;2022-12-18T11:28:05;100915.39;;;-1.26;100.00
35291;BME280;21411;50.024;19.220;2022-12-18T11:30:36;100919.06;;;-1.27;100.00
35291;BME280;21411;50.024;19.220;2022-12-18T11:33:09;100920.91;;;-1.32;100.00
35291;BME280;21411;50.024;19.220;2022-12-18T11:35:52;100920.70;;;-1.37;100.00
35291;BME280;21411;50.024;19.220;2022-12-18T11:38:24;100922.02;;;-1.42;100.00
35291;BME280;21411;50.024;19.220;2022-12-18T11:44:01;100926.44;;;-1.50;100.00
35291;BME280;21411;50.024;19.220;2022-12-18T11:46:35;100924.68;;;-1.51;100.00
35291;BME280;21411;50.024;19.220;2022-12-18T11:49:27;100924.95;;;-1.59;100.00
35291;BME280;21411;50.024;19.220;2022-12-18T11:52:18;100925.00;;;-1.66;100.00
35291;BME280;21411;50.024;19.220;2022-12-18T11:54:45;100926.79;;;-1.76;100.00
35291;BME280;21411;50.024;19.220;2022-12-18T12:00:17;100929.63;;;-1.85;100.00
35291;BME280;21411;50.024;19.220;2022-12-18T12:08:13;100930.69;;;-1.95;100.00
35291;BME280;21411;50.024;19.220;2022-12-18T12:10:58;100939.45;;;-1.92;100.00
35291;BME280;21411;50.024;19.220;2022-12-18T12:16:40;100943.23;;;-1.95;100.00
35291;BME280;21411;50.024;19.220;2022-12-18T12:22:04;100942.48;;;-1.99;100.00
35291;BME280;21411;50.024;19.220;2022-12-18T12:24:44;100941.75;;;-2.01;100.00
35291;BME280;21411;50.024;19.220;2022-12-18T12:30:25;100944.73;;;-2.10;100.00
35291;BME280;21411;50.024;19.220;2022-12-18T12:33:12;100944.16;;;-2.14;100.00
35291;BME280;21411;50.024;19.220;2022-12-18T12:36:00;100945.02;;;-2.15;100.00
35291;BME280;21411;50.024;19.220;2022-12-18T12:38:44;100950.41;;;-2.14;100.00
35291;BME280;21411;50.024;19.220;2022-12-18T12:41:18;100950.25;;;-2.14;100.00
35291;BME280;21411;50.024;19.220;2022-12-18T12:44:07;100956.65;;;-2.17;100.00
35291;BME280;21411;50.024;19.220;2022-12-18T12:46:38;100964.39;;;-2.22;100.00
35291;BME280;21411;50.024;19.220;2022-12-18T12:49:13;100969.74;;;-2.26;100.00
35291;BME280;21411;50.024;19.220;2022-12-18T12:52:05;100966.48;;;-2.31;100.00
35291;BME280;21411;50.024;19.220;2022-12-18T12:54:32;100965.55;;;-2.35;100.00
35291;BME280;21411;50.024;19.220;2022-12-18T13:02:39;100966.48;;;-2.52;100.00
35291;BME280;21411;50.024;19.220;2022-12-18T13:05:46;100971.78;;;-2.58;100.00
35291;BME280;21411;50.024;19.220;2022-12-18T13:08:25;100980.58;;;-2.62;100.00
35291;BME280;21411;50.024;19.220;2022-12-18T13:10:55;100981.67;;;-2.68;100.00
35291;BME280;21411;50.024;19.220;2022-12-18T13:14:00;100986.46;;;-2.73;100.00
35291;BME280;21411;50.024;19.220;2022-12-18T13:16:26;100984.41;;;-2.80;100.00
35291;BME280;21411;50.024;19.220;2022-12-18T13:18:57;100988.69;;;-2.84;100.00
35291;BME280;21411;50.024;19.220;2022-12-18T13:21:29;100988.08;;;-2.88;100.00
35291;BME280;21411;50.024;19.220;2022-12-18T13:23:56;100991.30;;;-2.92;100.00
35291;BME280;21411;50.024;19.220;2022-12-18T13:28:53;100996.63;;;-3.13;100.00
35291;BME280;21411;50.024;19.220;2022-12-18T13:34:27;101001.53;;;-3.27;100.00
35291;BME280;21411;50.024;19.220;2022-12-18T13:37:33;101000.83;;;-3.36;100.00
35291;BME280;21411;50.024;19.220;2022-12-18T13:39:42;101003.75;;;-3.45;100.00
35291;BME280;21411;50.024;19.220;2022-12-18T13:47:04;101013.15;;;-3.68;100.00
35291;BME280;21411;50.024;19.220;2022-12-18T13:49:38;101010.00;;;-3.76;100.00
35291;BME280;21411;50.024;19.220;2022-12-18T13:52:24;101010.83;;;-3.84;100.00